createdAt,value
2022-08-21T00:00:29.995Z,25.00
2022-08-21T00:03:02.259Z,24.94
2022-08-21T00:05:32.230Z,24.91
2022-08-21T00:08:01.105Z,24.91
2022-08-21T00:10:28.797Z,24.86
2022-08-21T00:12:56.765Z,24.86
2022-08-21T00:15:29.737Z,24.82
2022-08-21T00:17:58.290Z,24.78
2022-08-21T00:20:26.335Z,24.69
2022-08-21T00:22:54.130Z,24.65
2022-08-21T00:25:26.087Z,24.66
2022-08-21T00:27:54.201Z,24.65
2022-08-21T00:30:24.619Z,24.63
2022-08-21T00:32:53.997Z,24.60
2022-08-21T00:35:26.079Z,24.56
2022-08-21T00:37:53.655Z,24.55
2022-08-21T00:40:34.962Z,24.49
2022-08-21T00:43:04.434Z,24.45
2022-08-21T00:45:32.777Z,24.45
2022-08-21T00:48:00.266Z,24.39
2022-08-21T00:50:33.216Z,24.30
2022-08-21T00:53:03.444Z,24.24
2022-08-21T00:55:34.955Z,24.24
2022-08-21T00:58:04.735Z,24.19
2022-08-21T01:00:36.494Z,24.14
2022-08-21T01:03:10.870Z,24.07
2022-08-21T01:05:39.201Z,24.10
2022-08-21T01:08:08.863Z,24.12
2022-08-21T01:10:38.374Z,24.09
2022-08-21T01:13:08.889Z,24.09
2022-08-21T01:15:39.426Z,24.03
2022-08-21T01:18:09.588Z,23.94
2022-08-21T01:20:38.902Z,23.86
2022-08-21T01:23:07.904Z,23.82
2022-08-21T01:25:36.327Z,23.73
2022-08-21T01:28:13.801Z,23.50
2022-08-21T01:30:44.398Z,23.34
2022-08-21T01:33:12.135Z,23.23
2022-08-21T01:35:39.778Z,23.16
2022-08-21T01:38:08.553Z,23.07
2022-08-21T01:40:35.988Z,23.01
2022-08-21T01:43:03.917Z,22.97
2022-08-21T01:45:32.118Z,22.94
2022-08-21T01:47:59.504Z,22.92
2022-08-21T01:50:27.029Z,22.89
2022-08-21T01:52:54.433Z,22.85
2022-08-21T01:55:24.062Z,22.83
2022-08-21T01:57:51.803Z,22.84
2022-08-21T02:00:26.521Z,22.83
2022-08-21T02:02:54.147Z,22.87
2022-08-21T02:05:21.835Z,22.92
2022-08-21T02:07:53.353Z,22.96
2022-08-21T02:10:27.453Z,22.98
2022-08-21T02:12:56.171Z,22.97
2022-08-21T02:15:24.377Z,22.96
2022-08-21T02:17:56.560Z,22.94
2022-08-21T02:20:29.878Z,22.92
2022-08-21T02:22:57.955Z,22.94
2022-08-21T02:25:28.894Z,22.97
2022-08-21T02:27:56.961Z,23.00
2022-08-21T02:30:32.169Z,22.99
2022-08-21T02:33:00.379Z,22.98
2022-08-21T02:35:28.601Z,22.96
2022-08-21T02:38:01.151Z,22.89
2022-08-21T02:40:34.849Z,22.88
2022-08-21T02:43:04.896Z,22.91
2022-08-21T02:45:33.390Z,22.97
2022-08-21T02:48:05.405Z,22.99
2022-08-21T02:50:36.524Z,23.00
2022-08-21T02:53:05.503Z,22.96
2022-08-21T02:55:37.092Z,22.92
2022-08-21T02:58:06.573Z,22.89
2022-08-21T03:00:37.358Z,22.85
2022-08-21T03:03:06.589Z,22.82
2022-08-21T03:05:38.563Z,22.83
2022-08-21T03:08:11.226Z,22.83
2022-08-21T03:10:46.016Z,22.80
2022-08-21T03:13:14.974Z,22.81
2022-08-21T03:15:43.226Z,22.84
2022-08-21T03:18:11.669Z,22.90
2022-08-21T03:20:41.374Z,23.01
2022-08-21T03:23:13.367Z,23.12
2022-08-21T03:25:47.005Z,23.21
2022-08-21T03:28:19.227Z,23.23
2022-08-21T03:30:49.601Z,23.20
2022-08-21T03:33:17.652Z,23.21
2022-08-21T03:35:56.553Z,23.15
2022-08-21T03:38:26.609Z,23.15
2022-08-21T03:40:56.507Z,23.11
2022-08-21T03:43:23.964Z,23.10
2022-08-21T03:45:52.653Z,23.11
2022-08-21T03:48:20.728Z,23.12
2022-08-21T03:50:50.264Z,23.08
2022-08-21T03:53:18.240Z,23.07
2022-08-21T03:55:47.602Z,23.05
2022-08-21T03:58:18.377Z,23.00
2022-08-21T04:00:47.520Z,22.96
2022-08-21T04:03:15.258Z,22.87
2022-08-21T04:05:43.085Z,22.72
2022-08-21T04:08:10.563Z,22.64
2022-08-21T04:10:40.059Z,22.56
2022-08-21T04:13:08.753Z,22.49
2022-08-21T04:15:37.519Z,22.49
2022-08-21T04:18:06.492Z,22.48
2022-08-21T04:20:34.940Z,22.51
2022-08-21T04:23:03.301Z,22.51
2022-08-21T04:25:30.980Z,22.52
2022-08-21T04:27:58.953Z,22.56
2022-08-21T04:30:28.199Z,22.58
2022-08-21T04:32:59.320Z,22.61
2022-08-21T04:35:29.117Z,22.66
2022-08-21T04:37:57.439Z,22.74
2022-08-21T04:40:28.306Z,22.75
2022-08-21T04:43:01.547Z,22.66
2022-08-21T04:45:33.386Z,22.54
2022-08-21T04:48:07.827Z,22.47
2022-08-21T04:50:44.179Z,22.43
2022-08-21T04:53:21.547Z,22.37
2022-08-21T04:55:49.286Z,22.37
2022-08-21T04:58:20.067Z,22.38
2022-08-21T05:00:48.193Z,22.37
2022-08-21T05:03:18.848Z,22.30
2022-08-21T05:05:46.590Z,22.23
2022-08-21T05:08:20.122Z,22.18
2022-08-21T05:10:47.665Z,22.23
2022-08-21T05:13:15.438Z,22.23
2022-08-21T05:15:43.359Z,22.17
2022-08-21T05:18:10.744Z,22.12
2022-08-21T05:20:40.128Z,22.09
2022-08-21T05:23:10.787Z,22.11
2022-08-21T05:25:38.290Z,22.17
2022-08-21T05:28:07.330Z,22.29
2022-08-21T05:30:36.555Z,22.37
2022-08-21T05:33:06.652Z,22.46
2022-08-21T05:35:35.458Z,22.58
2022-08-21T05:38:05.608Z,22.68
2022-08-21T05:40:42.228Z,22.83
2022-08-21T05:43:09.601Z,22.94
2022-08-21T05:45:41.781Z,23.01
2022-08-21T05:48:16.090Z,22.99
2022-08-21T05:50:45.247Z,23.06
2022-08-21T05:53:15.325Z,23.09
2022-08-21T05:55:46.222Z,23.12
2022-08-21T05:58:16.064Z,23.13
2022-08-21T06:00:45.469Z,23.11
2022-08-21T06:03:16.522Z,23.07
2022-08-21T06:05:44.369Z,23.13
2022-08-21T06:08:14.395Z,23.16
2022-08-21T06:10:41.829Z,23.21
2022-08-21T06:13:09.213Z,23.28
2022-08-21T06:15:36.791Z,23.39
2022-08-21T06:18:04.633Z,23.46
2022-08-21T06:20:32.991Z,23.53
2022-08-21T06:23:00.612Z,23.56
2022-08-21T06:25:30.164Z,23.44
2022-08-21T06:28:03.516Z,23.32
2022-08-21T06:30:33.542Z,23.22
2022-08-21T06:33:01.414Z,23.22
2022-08-21T06:35:30.076Z,23.31
2022-08-21T06:37:58.450Z,23.46
2022-08-21T06:40:26.253Z,23.55
2022-08-21T06:42:55.182Z,23.60
2022-08-21T06:45:23.623Z,23.54
2022-08-21T06:47:51.081Z,23.46
2022-08-21T06:50:18.678Z,23.52
2022-08-21T06:52:45.997Z,23.65
2022-08-21T06:55:13.574Z,23.81
2022-08-21T06:57:52.345Z,23.94
2022-08-21T07:00:22.457Z,24.09
2022-08-21T07:02:49.870Z,24.18
2022-08-21T07:05:18.400Z,24.30
2022-08-21T07:07:47.349Z,24.40
2022-08-21T07:10:22.378Z,24.49
2022-08-21T07:12:50.802Z,24.50
2022-08-21T07:15:28.109Z,24.48
2022-08-21T07:17:55.378Z,24.52
2022-08-21T07:20:22.757Z,24.61
2022-08-21T07:22:50.105Z,24.69
2022-08-21T07:25:17.447Z,24.78
2022-08-21T07:27:44.759Z,24.90
2022-08-21T07:30:12.819Z,24.93
2022-08-21T07:32:41.526Z,25.11
2022-08-21T07:35:09.327Z,25.58
2022-08-21T07:37:36.842Z,26.36
2022-08-21T07:40:06.362Z,27.16
2022-08-21T07:42:33.902Z,28.00
2022-08-21T07:45:01.220Z,28.57
2022-08-21T07:47:29.589Z,29.00
2022-08-21T07:50:12.659Z,29.83
2022-08-21T07:52:41.198Z,30.75
2022-08-21T07:55:11.876Z,31.51
2022-08-21T07:57:39.747Z,32.21
2022-08-21T08:00:12.544Z,32.77
2022-08-21T08:02:41.158Z,33.50
2022-08-21T08:05:12.635Z,34.34
2022-08-21T08:07:40.755Z,35.04
2022-08-21T08:10:11.069Z,35.68
2022-08-21T08:12:42.280Z,36.38
2022-08-21T08:15:14.054Z,36.94
2022-08-21T08:17:41.392Z,37.28
2022-08-21T08:20:14.159Z,37.59
2022-08-21T08:22:42.319Z,37.57
2022-08-21T08:25:13.682Z,37.47
2022-08-21T08:27:41.864Z,37.64
2022-08-21T08:30:13.778Z,37.97
2022-08-21T08:32:42.198Z,38.47
2022-08-21T08:35:12.802Z,38.80
2022-08-21T08:37:41.970Z,39.05
2022-08-21T08:40:14.788Z,39.50
2022-08-21T08:42:42.296Z,40.07
2022-08-21T08:45:17.418Z,40.66
2022-08-21T08:47:50.248Z,41.04
2022-08-21T08:50:24.820Z,41.16
2022-08-21T08:53:01.984Z,40.93
2022-08-21T08:55:36.942Z,40.85
2022-08-21T08:58:05.078Z,40.93
2022-08-21T09:00:33.565Z,40.68
2022-08-21T09:03:03.949Z,40.07
2022-08-21T09:05:44.069Z,40.00
2022-08-21T09:08:32.375Z,40.27
2022-08-21T09:11:05.971Z,40.37
2022-08-21T09:13:50.601Z,39.68
2022-08-21T09:16:41.852Z,39.61
2022-08-21T09:19:30.171Z,40.06
2022-08-21T09:22:14.706Z,40.78
2022-08-21T09:24:59.894Z,41.20
2022-08-21T09:27:27.323Z,41.49
2022-08-21T09:29:55.798Z,41.07
2022-08-21T09:32:37.597Z,40.45
2022-08-21T09:35:10.816Z,39.10
2022-08-21T09:37:53.760Z,38.07
2022-08-21T09:40:34.352Z,38.10
2022-08-21T09:43:05.619Z,38.74
2022-08-21T09:45:35.017Z,39.33
2022-08-21T09:48:18.785Z,39.81
2022-08-21T09:50:48.626Z,40.28
2022-08-21T09:53:33.711Z,40.84
2022-08-21T09:56:35.468Z,41.12
2022-08-21T09:59:14.757Z,41.47
2022-08-21T10:01:46.537Z,41.83
2022-08-21T10:04:15.132Z,42.04
2022-08-21T10:06:42.793Z,41.55
2022-08-21T10:09:20.940Z,40.58
2022-08-21T10:12:11.367Z,40.15
2022-08-21T10:14:54.537Z,39.05
2022-08-21T10:17:37.414Z,38.75
2022-08-21T10:20:12.875Z,39.38
2022-08-21T10:22:50.233Z,39.98
2022-08-21T10:25:31.102Z,40.26
2022-08-21T10:28:09.028Z,40.65
2022-08-21T10:31:01.297Z,41.20
2022-08-21T10:33:45.618Z,41.60
2022-08-21T10:36:21.611Z,41.76
2022-08-21T10:39:26.827Z,41.17
2022-08-21T10:42:30.550Z,39.88
2022-08-21T10:45:15.363Z,38.91
2022-08-21T10:47:49.870Z,37.84
2022-08-21T10:50:31.103Z,36.91
2022-08-21T10:53:16.954Z,36.20
2022-08-21T10:55:55.930Z,35.62
2022-08-21T10:58:31.564Z,35.04
2022-08-21T11:01:10.196Z,34.60
2022-08-21T11:03:44.504Z,34.49
2022-08-21T11:06:20.292Z,34.26
2022-08-21T11:08:55.356Z,34.03
2022-08-21T11:11:35.798Z,34.02
2022-08-21T11:14:19.281Z,34.58
2022-08-21T11:16:54.322Z,35.05
2022-08-21T11:19:29.964Z,35.61
2022-08-21T11:22:08.909Z,36.17
2022-08-21T11:24:46.053Z,36.27
2022-08-21T11:27:26.344Z,35.94
2022-08-21T11:29:59.454Z,35.09
2022-08-21T11:32:55.717Z,34.53
2022-08-21T11:35:44.925Z,34.11
2022-08-21T11:38:28.957Z,33.71
2022-08-21T11:41:26.193Z,33.39
2022-08-21T11:44:09.651Z,33.32
2022-08-21T11:46:59.586Z,33.29
2022-08-21T11:49:50.021Z,33.06
2022-08-21T11:52:26.510Z,32.89
2022-08-21T11:55:01.874Z,32.74
2022-08-21T11:57:39.459Z,32.57
2022-08-21T12:00:14.680Z,32.47
2022-08-21T12:02:49.633Z,32.41
2022-08-21T12:05:32.584Z,32.33
2022-08-21T12:08:08.320Z,32.27
2022-08-21T12:10:41.202Z,32.26
2022-08-21T12:13:14.609Z,32.21
2022-08-21T12:15:42.066Z,32.10
2022-08-21T12:18:29.730Z,32.03
2022-08-21T12:21:06.641Z,32.04
2022-08-21T12:23:46.673Z,31.91
2022-08-21T12:26:29.404Z,31.80
2022-08-21T12:29:15.181Z,31.72
2022-08-21T12:31:56.726Z,31.50
2022-08-21T12:34:35.320Z,31.40
2022-08-21T12:37:12.708Z,31.39
2022-08-21T12:39:45.732Z,31.35
2022-08-21T12:42:21.397Z,31.41
2022-08-21T12:44:55.389Z,31.51
2022-08-21T12:47:32.377Z,31.58
2022-08-21T12:50:07.350Z,31.76
2022-08-21T12:52:41.495Z,31.95
2022-08-21T12:55:13.503Z,32.42
2022-08-21T12:57:43.032Z,32.88
2022-08-21T13:00:15.687Z,33.12
2022-08-21T13:02:49.323Z,33.20
2022-08-21T13:05:30.291Z,33.17
2022-08-21T13:07:58.365Z,33.14
2022-08-21T13:10:30.217Z,33.08
2022-08-21T13:13:02.572Z,32.96
2022-08-21T13:15:47.650Z,32.91
2022-08-21T13:18:24.852Z,32.86
2022-08-21T13:21:06.425Z,32.78
2022-08-21T13:23:34.248Z,32.85
2022-08-21T13:26:03.827Z,32.82
2022-08-21T13:28:37.502Z,32.73
2022-08-21T13:31:11.232Z,32.71
2022-08-21T13:33:42.150Z,32.71
2022-08-21T13:36:20.177Z,32.62
2022-08-21T13:38:48.031Z,32.51
2022-08-21T13:41:25.255Z,32.35
2022-08-21T13:44:03.400Z,32.29
2022-08-21T13:46:35.062Z,32.37
2022-08-21T13:49:05.933Z,32.39
2022-08-21T13:51:35.809Z,32.42
2022-08-21T13:54:16.332Z,32.43
2022-08-21T13:56:46.973Z,32.43
2022-08-21T13:59:27.004Z,32.52
2022-08-21T14:02:00.066Z,32.47
2022-08-21T14:04:36.053Z,32.46
2022-08-21T14:07:19.024Z,32.21
2022-08-21T14:09:48.274Z,32.21
2022-08-21T14:12:25.156Z,32.35
2022-08-21T14:14:56.067Z,32.44
2022-08-21T14:17:34.021Z,32.58
2022-08-21T14:20:02.429Z,32.76
2022-08-21T14:22:40.659Z,32.76
2022-08-21T14:25:13.675Z,32.81
2022-08-21T14:27:50.937Z,32.83
2022-08-21T14:30:22.913Z,32.78
2022-08-21T14:32:51.226Z,32.83
2022-08-21T14:35:18.841Z,32.87
2022-08-21T14:37:54.983Z,32.89
2022-08-21T14:40:25.731Z,32.91
2022-08-21T14:42:54.284Z,32.90
2022-08-21T14:45:29.230Z,32.82
2022-08-21T14:47:57.593Z,32.78
2022-08-21T14:50:28.042Z,32.73
2022-08-21T14:52:57.261Z,32.73
2022-08-21T14:55:24.854Z,33.04
2022-08-21T14:57:55.728Z,33.18
2022-08-21T15:00:35.694Z,33.12
2022-08-21T15:03:03.707Z,33.01
2022-08-21T15:05:33.788Z,32.93
2022-08-21T15:08:04.050Z,32.79
2022-08-21T15:10:34.937Z,32.70
2022-08-21T15:13:03.163Z,32.63
2022-08-21T15:15:36.359Z,32.55
2022-08-21T15:18:04.026Z,32.48
2022-08-21T15:20:31.742Z,32.46
2022-08-21T15:22:59.320Z,32.48
2022-08-21T15:25:28.634Z,32.51
2022-08-21T15:27:56.774Z,32.49
2022-08-21T15:30:24.366Z,32.47
2022-08-21T15:32:51.750Z,32.44
2022-08-21T15:35:19.594Z,32.40
2022-08-21T15:37:46.983Z,32.35
2022-08-21T15:40:15.230Z,32.30
2022-08-21T15:42:44.699Z,32.25
2022-08-21T15:45:13.782Z,32.20
2022-08-21T15:47:46.143Z,32.13
2022-08-21T15:50:14.915Z,32.04
2022-08-21T15:52:42.369Z,31.93
2022-08-21T15:55:11.030Z,31.85
2022-08-21T15:57:58.101Z,31.76
2022-08-21T16:00:27.251Z,31.76
2022-08-21T16:02:58.364Z,31.78
2022-08-21T16:05:26.041Z,31.77
2022-08-21T16:07:53.945Z,31.77
2022-08-21T16:10:29.837Z,31.78
2022-08-21T16:13:04.987Z,31.78
2022-08-21T16:15:32.610Z,31.78
2022-08-21T16:18:00.146Z,31.78
2022-08-21T16:20:30.801Z,31.79
2022-08-21T16:22:59.570Z,31.79
2022-08-21T16:25:29.003Z,31.82
2022-08-21T16:28:02.503Z,31.82
2022-08-21T16:30:30.955Z,31.86
2022-08-21T16:33:00.858Z,31.93
2022-08-21T16:35:28.227Z,32.12
2022-08-21T16:37:56.229Z,32.18
2022-08-21T16:40:24.236Z,32.20
2022-08-21T16:42:52.267Z,32.16
2022-08-21T16:45:21.926Z,32.12
2022-08-21T16:47:49.442Z,32.02
2022-08-21T16:50:22.388Z,31.93
2022-08-21T16:52:50.189Z,31.85
2022-08-21T16:55:18.217Z,31.72
2022-08-21T16:57:45.698Z,31.61
2022-08-21T17:00:14.515Z,31.51
2022-08-21T17:02:48.397Z,31.41
2022-08-21T17:05:16.969Z,31.40
2022-08-21T17:07:45.279Z,31.37
2022-08-21T17:10:15.903Z,31.30
2022-08-21T17:12:47.123Z,31.32
2022-08-21T17:15:23.393Z,31.39
2022-08-21T17:17:53.424Z,31.48
2022-08-21T17:20:21.559Z,31.58
2022-08-21T17:22:49.172Z,31.67
2022-08-21T17:25:16.716Z,31.72
2022-08-21T17:27:47.444Z,31.70
2022-08-21T17:30:16.601Z,31.66
2022-08-21T17:32:46.330Z,31.59
2022-08-21T17:35:15.843Z,31.49
2022-08-21T17:37:43.629Z,31.35
2022-08-21T17:40:15.228Z,31.18
2022-08-21T17:42:45.107Z,31.01
2022-08-21T17:45:17.582Z,30.85
2022-08-21T17:47:45.106Z,30.71
2022-08-21T17:50:22.599Z,30.61
2022-08-21T17:52:50.508Z,30.48
2022-08-21T17:55:20.340Z,30.35
2022-08-21T17:57:51.353Z,30.20
2022-08-21T18:00:22.686Z,30.06
2022-08-21T18:03:01.897Z,29.95
2022-08-21T18:05:31.060Z,29.90
2022-08-21T18:07:58.769Z,29.82
2022-08-21T18:10:26.950Z,29.75
2022-08-21T18:12:54.695Z,29.65
2022-08-21T18:15:22.647Z,29.55
2022-08-21T18:17:53.395Z,29.43
2022-08-21T18:20:24.046Z,29.36
2022-08-21T18:22:52.971Z,29.29
2022-08-21T18:25:20.740Z,29.25
2022-08-21T18:27:49.903Z,29.18
2022-08-21T18:30:22.531Z,29.11
2022-08-21T18:32:52.413Z,29.06
2022-08-21T18:35:20.157Z,29.00
2022-08-21T18:37:47.602Z,28.97
2022-08-21T18:40:16.451Z,28.89
2022-08-21T18:42:55.205Z,28.80
2022-08-21T18:45:24.555Z,28.72
2022-08-21T18:47:55.446Z,28.63
2022-08-21T18:50:27.522Z,28.56
2022-08-21T18:52:56.872Z,28.52
2022-08-21T18:55:27.391Z,28.48
2022-08-21T18:57:57.316Z,28.45
2022-08-21T19:00:30.287Z,28.40
2022-08-21T19:02:58.632Z,28.38
2022-08-21T19:05:27.876Z,28.36
2022-08-21T19:07:56.514Z,28.33
2022-08-21T19:10:28.604Z,28.30
2022-08-21T19:12:59.606Z,28.25
2022-08-21T19:15:28.619Z,28.21
2022-08-21T19:17:58.963Z,28.16
2022-08-21T19:20:30.750Z,28.13
2022-08-21T19:22:58.387Z,28.12
2022-08-21T19:25:33.418Z,28.10
2022-08-21T19:28:03.523Z,28.08
2022-08-21T19:30:45.742Z,28.05
2022-08-21T19:33:36.003Z,27.99
2022-08-21T19:36:04.577Z,27.98
2022-08-21T19:38:32.079Z,27.99
2022-08-21T19:41:02.046Z,28.00
2022-08-21T19:43:32.236Z,28.03
2022-08-21T19:46:00.855Z,28.04
2022-08-21T19:48:28.304Z,28.06
2022-08-21T19:50:55.673Z,28.08
2022-08-21T19:53:23.068Z,28.07
2022-08-21T19:55:50.850Z,28.04
2022-08-21T19:58:34.407Z,27.95
2022-08-21T20:01:03.857Z,27.91
2022-08-21T20:03:39.158Z,27.85
2022-08-21T20:06:10.671Z,27.82
2022-08-21T20:08:38.051Z,27.78
2022-08-21T20:11:06.182Z,27.73
2022-08-21T20:13:35.830Z,27.70
2022-08-21T20:16:09.094Z,27.65
2022-08-21T20:18:40.552Z,27.62
2022-08-21T20:21:13.110Z,27.58
2022-08-21T20:23:48.946Z,27.53
2022-08-21T20:26:17.442Z,27.49
2022-08-21T20:28:50.450Z,27.49
2022-08-21T20:31:20.541Z,27.47
2022-08-21T20:33:49.615Z,27.44
2022-08-21T20:36:17.182Z,27.43
2022-08-21T20:38:48.120Z,27.43
2022-08-21T20:41:21.042Z,27.43
2022-08-21T20:43:51.136Z,27.40
2022-08-21T20:46:24.287Z,27.34
2022-08-21T20:48:52.639Z,27.32
2022-08-21T20:51:28.307Z,27.29
2022-08-21T20:54:04.595Z,27.27
2022-08-21T20:56:45.469Z,27.24
2022-08-21T20:59:31.605Z,27.19
2022-08-21T21:02:17.072Z,27.14
2022-08-21T21:04:54.806Z,27.10
2022-08-21T21:07:30.088Z,27.05
2022-08-21T21:10:03.168Z,27.02
2022-08-21T21:12:40.493Z,26.99
2022-08-21T21:15:23.394Z,26.97
2022-08-21T21:18:07.319Z,26.91
2022-08-21T21:20:49.995Z,26.89
2022-08-21T21:23:27.638Z,26.85
2022-08-21T21:26:06.580Z,26.82
2022-08-21T21:28:48.800Z,26.76
2022-08-21T21:31:18.103Z,26.71
2022-08-21T21:33:47.023Z,26.67
2022-08-21T21:36:28.530Z,26.60
2022-08-21T21:39:09.176Z,26.54
2022-08-21T21:41:54.330Z,26.46
2022-08-21T21:45:01.400Z,26.35
2022-08-21T21:47:47.962Z,26.33
2022-08-21T21:50:45.159Z,26.30
2022-08-21T21:53:42.662Z,26.30
2022-08-21T21:59:41.042Z,26.37
2022-08-21T22:02:31.289Z,26.43
2022-08-21T22:05:09.756Z,26.47
2022-08-21T22:07:47.779Z,26.47
2022-08-21T22:10:34.095Z,26.48
2022-08-21T22:13:26.582Z,26.50
2022-08-21T22:15:55.232Z,26.55
2022-08-21T22:18:29.583Z,26.55
2022-08-21T22:21:05.299Z,26.55
2022-08-21T22:23:40.022Z,26.57
2022-08-21T22:26:14.530Z,26.58
2022-08-21T22:28:48.534Z,26.61
2022-08-21T22:31:21.206Z,26.62
2022-08-21T22:34:06.991Z,26.61
2022-08-21T22:36:56.366Z,26.60
2022-08-21T22:39:33.184Z,26.62
2022-08-21T22:42:10.899Z,26.64
2022-08-21T22:44:51.741Z,26.65
2022-08-21T22:47:29.996Z,26.70
2022-08-21T22:50:04.327Z,26.74
2022-08-21T22:52:37.157Z,26.75
2022-08-21T22:55:24.675Z,26.75
2022-08-21T22:58:08.342Z,26.72
2022-08-21T23:00:56.814Z,26.72
2022-08-21T23:03:33.531Z,26.72
2022-08-21T23:06:12.827Z,26.75
2022-08-21T23:08:44.208Z,26.75
2022-08-21T23:11:15.857Z,26.73
2022-08-21T23:13:48.621Z,26.74
2022-08-21T23:19:54.811Z,26.64
2022-08-21T23:22:39.579Z,26.63
2022-08-21T23:25:42.614Z,26.55
2022-08-21T23:28:26.284Z,26.54
2022-08-21T23:31:09.283Z,26.54
2022-08-21T23:33:59.534Z,26.53
2022-08-21T23:37:07.858Z,26.51
2022-08-21T23:39:55.798Z,26.48
2022-08-21T23:42:45.760Z,26.46
2022-08-21T23:45:38.482Z,26.40
2022-08-21T23:48:29.398Z,26.38
2022-08-21T23:51:13.158Z,26.41
2022-08-21T23:54:02.295Z,26.40
2022-08-21T23:56:51.851Z,26.42
2022-08-21T23:59:39.975Z,26.38
